Caney, Kentucky
Current Conditions -  °F | °C
As of 5:53 AM on Friday 28 Nov 2014 (Local Time) from KJKL Reporting Station
Overcast Overcast  
Wind Chill: 26°   Ceiling: 2700
Heat Index: 26°   Visibility: 10mi
Dew Point: 16°   Wind: 0mph
Humidity: 66%   Direction: NA
Pressure: 30.36"   Gusts: NA
Location:  37.937°N, 83.2694°W
Report Text: KJKL 281053Z AUTO 00000KT 10SM OVC027 M03/M09 A3036 RMK AO2 SLP295 T10331089
Loading
Personal Weather Stations






























Interactive Weather Map New forecast layout! Learn more

10-Day Weather Forecast

Advertisements
Track Severe Weather on mobile